Detall de PIREP

Printer-friendly versionPDF version

[2013/03/12 16:04:00]
Flight IATA:CT3304
Pilot Number:012
Company ICAO:CAT
Aircraft Type:A320/E
PAX:150
Departing Airport: LEZG
Destination Airport: GMMN
Alternate Airport:GMME
Online: VATSIM
Route:SURCO UN869 GALTO UB11 BISMI
Flight Level:F370
No Slew and time accel
No pause
Crash detect
Detect pilot in Cockpit between each 30 and 45 minutes
16:04 Zero fuel Weight: 120743 Lbs, Fuel Weight: 18540 Lbs
16:04 VATSIM:LEZG 121530Z 33008KT 9999 FEW035 FEW040TCU SCT070 13/02 Q1000
16:04 VATSIM:GMMN 121530Z 24015KT 9999 BKN016 SCT100 18/13 Q1013 NOSIG
16:05 VOICE CATALONIAN
16:05 Parking Brakes off
16:10 Take-off
16:10 Take off Weight: 138542 Lbs
16:10 Wind: 333º @ 008 Knots Heading: 301º
16:10 POS N41º 39´ 55´´ W001º 01´ 53´´
16:10 Flaps:3 at 178 Knots
16:10 Gear Up: 181 Knots
16:10 Flaps:2 at 194 Knots
16:10 Flaps:1 at 200 Knots
16:11 Flaps:0 at 221 Knots
16:25 Wind:279º@096 Knots Heading: 225º Ground Speed: 404 Knots Altitude 32906 ft
16:28 TOC
16:28 Fuel Weight: 13836 Lb
16:40 Wind:287º@094 Knots Heading: 220º Ground Speed: 414 Knots Altitude 36643 ft
16:55 Wind:289º@113 Knots Heading: 218º Ground Speed: 422 Knots Altitude 36676 ft
17:10 Wind:293º@118 Knots Heading: 227º Ground Speed: 413 Knots Altitude 36709 ft
17:25 Wind:298º@123 Knots Heading: 235º Ground Speed: 407 Knots Altitude 36863 ft
17:26 TOD
17:26 Fuel Weight: 8995 Lb
17:40 Wind:288º@038 Knots Heading: 209º Ground Speed: 307 Knots Altitude 10652 ft
17:52 Flaps:1 at 222 Knots
17:53 Flaps:3 at 185 Knots
17:55 Wind:238º@018 Knots Heading: 156º Ground Speed: 182 Knots Altitude 2257 ft
17:55 Gear Down: 178 Knots
17:55 Flaps:4 at 154 Knots
17:55 Flaps:5 at 146 Knots
17:57 TouchDown:Rate -140 ft/min Speed: 137 Knots
17:57 VATSIM:GMMN 121730Z 24017KT 9999 BKN016 SCT100 16/13 Q1013 NOSIG
17:57 Land
17:57 Wind:245º@019 Knots
17:57 Heading: 163º
17:57 Flight Duration: 01:47
17:57 Landing Weight: 127238 Lbs
17:57 POS N33º 22´ 12´´ W007º 35´ 31´´
17:59 Parking brakes on
17:59 Block to Block Duration: 01:54
17:59 Final Fuel: 6267 Lbls
17:59 Spent Fuel: 12272 Lbls
17:59 Flight Length: 660 NM
17:59 TOD Land Length: 146 NM

Exportar CSV

Powered by Drupal - Modified by Danger4k